Accueil
METAR-TAF:

METAR-TAF

Aéroports :

Hunt Field

Lander, Wyoming, États-Unis

latitude: 42-48-53N, longitude: 108-43-41W, altitude: 1703 m

Observation

Le bulletin a été fait il y a 46 minutes, à 09:53 UTC
Vent 3 kt de sud/sud-est
Température 1°C
Humidité 59%
Pression 1022 hPa
Visibilité: 16.1 km
Ciel clair

METAR: KLND 180953Z AUTO 15003KT 10SM CLR 01/M06 A3017 RMK AO2 SLP216 T00061056

Heure: 04:39 (10:39 UTC)

Prévision

Le bulletin a été fait il y a 5 heures et 8 minutes, à 05:31 UTC
Prévision valable du 18 à 06 UTC au 19 à 06 UTC
Vent 5 kt de direction variable
Visibilité: 10 km
Nuages épars à une hauteur de 10000 ft
A partir de 18 à 2200 UTC
Vent 7 kt de ouest/nord-ouest
Visibilité: 10 km
Nuages épars à une hauteur de 9000 ft

TAF: KLND 180531Z 1806/1906 VRB05KT P6SM SCT100 FM182200 29007KT P6SM SCT090

Observations et prévisions météorologiques de plus de 4000 aéroports (messages METAR et TAF).

Les stations disponibles sont représentées par des disques jaunes et rouges sur la carte.

Passer la souris dessus pour voir le nom de la station.

Cliquer dessus pour voir les observations et prévisions météorologiques.

Pour changer de carte: cliquez sur les boutons verts avec une croix noire pour zoomer, sur le bouton vert avec un tiret pour effectuer un zoom arrière, ou sur les flèches vertes pour les cartes adjacentes.


METAR-TAF: